Portada
METAR-TAF:

METAR-TAF

Aeropuertos :

Air Force Base Waterkloof

Waterkloof, Sudáfrica

latitud: 25-50S, longitud: 028-13E, altitud: 1498 m

Observación

El informe se hizo hace 3 horas y 1 minutos, a las 02:00 UTC
Viento 3 kt del sur
Temperatura 1°C
Humedad 69%
Presión 1025 hPa

METAR: FAWK 280200Z AUTO 17003KT //// // ////// 01/M04 Q1025

Hora: 07:01 (05:01 UTC)

Pronóstico

El informe se hizo hace 20 horas y 1 minutos, a las 09:00 UTC
Pronóstico válido del 27 a las 10 UTC al 27 a las 18 UTC
Viento 10 kt del sur-suroeste
Visibilidad 10 km o más
sin nubes por debajo de 1500 m y sin presencia de cumulonimbus.
Evolucionando progresivamente
del 27 a las 12 UTC al 27 a las 14 UTC
Viento 3 kt con dirección variable

TAF: FAWK 270900Z 2710/2718 20010KT CAVOK TX14/2712Z TN07/2718Z BECMG 2712/2714 VRB03KT

Observaciones y pronósticos meteorológicos de más de 4000 aeropuertos (mensajes METAR y TAF).

Los puntos amarillos y rojos representan las estaciones disponibles.

Ponga el ratón en el punto deseado para ver el nombre de la estación.

Haga clic para ver las observaciones y los pronósticos meteorológicos.

Para cambiar el mapa : haga clic en los botones verdes con una cruz de color negro para hacer un zoom, en el botón verde con un guión para alejar o en las flechas verdes para mapas adyacentes.


METAR-TAF: